createdAt,value
2019-05-12T00:01:48.034Z,1.37
2019-05-12T00:04:21.184Z,1.13
2019-05-12T00:06:51.166Z,0.90
2019-05-12T00:09:21.325Z,1.50
2019-05-12T00:11:53.401Z,1.00
2019-05-12T00:14:32.576Z,1.00
2019-05-12T00:17:08.091Z,1.27
2019-05-12T00:19:40.361Z,1.10
2019-05-12T00:22:11.697Z,1.40
2019-05-12T00:24:42.405Z,1.30
2019-05-12T00:27:23.277Z,1.33
2019-05-12T00:29:57.856Z,1.20
2019-05-12T00:32:34.120Z,1.10
2019-05-12T00:35:07.288Z,1.10
2019-05-12T00:37:39.085Z,1.40
2019-05-12T00:40:09.056Z,1.37
2019-05-12T00:42:41.668Z,1.30
2019-05-12T00:45:12.606Z,1.57
2019-05-12T00:47:49.266Z,1.47
2019-05-12T00:50:19.368Z,1.50
2019-05-12T00:52:49.510Z,1.37
2019-05-12T00:55:32.220Z,1.20
2019-05-12T00:58:02.312Z,1.53
2019-05-12T01:00:32.392Z,1.20
2019-05-12T01:03:02.506Z,1.53
2019-05-12T01:05:32.833Z,1.43
2019-05-12T01:08:09.647Z,1.30
2019-05-12T01:10:47.902Z,1.50
2019-05-12T01:13:18.985Z,1.23
2019-05-12T01:15:49.168Z,1.60
2019-05-12T01:18:22.312Z,1.63
2019-05-12T01:20:52.262Z,1.57
2019-05-12T01:23:29.066Z,1.43
2019-05-12T01:25:59.163Z,1.50
2019-05-12T01:28:29.316Z,2.03
2019-05-12T01:31:03.202Z,1.93
2019-05-12T01:33:33.290Z,1.45
2019-05-12T01:36:04.431Z,1.57
2019-05-12T01:38:37.801Z,1.40
2019-05-12T01:41:08.719Z,1.93
2019-05-12T01:43:39.018Z,1.70
2019-05-12T01:46:09.124Z,1.87
2019-05-12T01:48:39.214Z,2.15
2019-05-12T01:51:09.964Z,1.87
2019-05-12T01:53:39.933Z,2.20
2019-05-12T01:56:09.793Z,2.00
2019-05-12T01:58:48.782Z,2.08
2019-05-12T02:01:32.940Z,2.10
2019-05-12T02:04:07.762Z,2.02
2019-05-12T02:06:38.755Z,2.85
2019-05-12T02:09:10.324Z,2.40
2019-05-12T02:11:39.994Z,2.47
2019-05-12T02:14:09.966Z,1.80
2019-05-12T02:16:40.072Z,2.50
2019-05-12T02:19:11.046Z,1.80
2019-05-12T02:21:41.147Z,2.50
2019-05-12T02:24:23.279Z,2.90
2019-05-12T02:26:48.982Z,2.58
2019-05-12T02:29:20.079Z,2.37
2019-05-12T02:32:02.056Z,2.97
2019-05-12T02:34:34.755Z,2.60
2019-05-12T02:37:05.199Z,2.27
2019-05-12T02:39:35.680Z,2.27
2019-05-12T02:42:05.588Z,2.27
2019-05-12T02:44:35.532Z,2.50
2019-05-12T02:47:06.240Z,2.20
2019-05-12T02:49:37.107Z,2.57
2019-05-12T02:52:08.268Z,2.83
2019-05-12T02:54:51.837Z,3.10
2019-05-12T02:57:14.845Z,4.23
2019-05-12T02:59:54.989Z,2.67
2019-05-12T03:02:28.638Z,4.25
2019-05-12T03:05:01.072Z,3.87
2019-05-12T03:07:37.734Z,3.80
2019-05-12T03:10:09.551Z,4.30
2019-05-12T03:12:40.402Z,4.37
2019-05-12T03:15:10.494Z,3.77
2019-05-12T03:17:40.325Z,3.30
2019-05-12T03:20:10.501Z,4.77
2019-05-12T03:22:46.250Z,3.85
2019-05-12T03:25:24.579Z,4.67
2019-05-12T03:27:49.013Z,3.73
2019-05-12T03:30:29.454Z,3.47
2019-05-12T03:33:00.537Z,3.60
2019-05-12T03:35:35.357Z,4.17
2019-05-12T03:38:04.398Z,3.17
2019-05-12T03:40:37.495Z,3.87
2019-05-12T03:43:06.286Z,3.12
2019-05-12T03:45:36.597Z,3.60
2019-05-12T03:48:07.375Z,3.00
2019-05-12T03:50:46.197Z,3.17
2019-05-12T03:53:15.824Z,3.20
2019-05-12T03:55:47.485Z,3.65
2019-05-12T03:58:25.891Z,2.75
2019-05-12T04:00:56.970Z,2.85
2019-05-12T04:03:27.666Z,2.42
2019-05-12T04:06:09.850Z,2.87
2019-05-12T04:08:45.573Z,2.80
2019-05-12T04:11:17.799Z,2.75
2019-05-12T04:13:49.828Z,3.02
2019-05-12T04:16:29.021Z,2.33
2019-05-12T04:18:59.086Z,2.30
2019-05-12T04:21:31.151Z,2.65
2019-05-12T04:24:01.277Z,2.45
2019-05-12T04:26:35.817Z,2.35
2019-05-12T04:29:05.120Z,2.58
2019-05-12T04:31:44.106Z,2.30
2019-05-12T04:34:17.979Z,2.25
2019-05-12T04:36:45.394Z,2.77
2019-05-12T04:39:17.202Z,2.67
2019-05-12T04:41:48.109Z,2.22
2019-05-12T04:44:17.941Z,2.70
2019-05-12T04:46:51.077Z,1.98
2019-05-12T04:49:24.678Z,2.30
2019-05-12T04:51:54.592Z,1.92
2019-05-12T04:54:25.868Z,2.50
2019-05-12T04:56:55.717Z,2.33
2019-05-12T04:59:25.715Z,2.75
2019-05-12T05:01:55.842Z,2.55
2019-05-12T05:04:25.963Z,2.33
2019-05-12T05:06:56.962Z,1.92
2019-05-12T05:09:27.054Z,1.98
2019-05-12T05:11:57.148Z,2.30
2019-05-12T05:14:27.491Z,1.92
2019-05-12T05:16:57.603Z,2.10
2019-05-12T05:19:28.674Z,1.55
2019-05-12T05:22:04.234Z,2.65
2019-05-12T05:24:33.970Z,2.15
2019-05-12T05:27:04.983Z,1.92
2019-05-12T05:29:37.110Z,2.40
2019-05-12T05:32:15.958Z,3.12
2019-05-12T05:34:55.723Z,3.22
2019-05-12T05:37:19.663Z,2.30
2019-05-12T05:39:53.944Z,2.65
2019-05-12T05:42:28.341Z,2.00
2019-05-12T05:44:55.834Z,2.35
2019-05-12T05:47:33.482Z,2.10
2019-05-12T05:50:04.787Z,2.40
2019-05-12T05:52:38.636Z,3.17
2019-05-12T05:55:19.973Z,2.67
2019-05-12T05:57:47.070Z,2.85
2019-05-12T06:00:22.985Z,2.50
2019-05-12T06:02:49.422Z,1.75
2019-05-12T06:05:29.377Z,2.20
2019-05-12T06:07:56.981Z,2.05
2019-05-12T06:10:35.291Z,2.10
2019-05-12T06:13:04.020Z,2.10
2019-05-12T06:15:44.615Z,2.60
2019-05-12T06:18:14.739Z,2.10
2019-05-12T06:20:44.831Z,1.82
2019-05-12T06:23:15.098Z,2.08
2019-05-12T06:25:51.383Z,2.37
2019-05-12T06:28:17.640Z,2.17
2019-05-12T06:30:50.283Z,2.00
2019-05-12T06:33:22.711Z,2.08
2019-05-12T06:35:58.028Z,2.10
2019-05-12T06:38:31.082Z,2.50
2019-05-12T06:40:59.393Z,1.70
2019-05-12T06:43:35.016Z,1.80
2019-05-12T06:46:03.636Z,2.10
2019-05-12T06:48:36.493Z,2.23
2019-05-12T06:51:09.208Z,2.70
2019-05-12T06:53:55.086Z,2.17
2019-05-12T06:56:25.173Z,2.33
2019-05-12T06:58:55.277Z,2.50
2019-05-12T07:01:25.366Z,1.97
2019-05-12T07:04:06.443Z,2.60
2019-05-12T07:06:35.025Z,2.87
2019-05-12T07:09:09.727Z,3.77
2019-05-12T07:11:47.999Z,3.30
2019-05-12T07:14:22.370Z,3.43
2019-05-12T07:16:55.253Z,3.20
2019-05-12T07:19:23.394Z,3.73
2019-05-12T07:21:59.089Z,4.50
2019-05-12T07:24:29.137Z,3.67
2019-05-12T07:27:04.204Z,4.03
2019-05-12T07:29:34.348Z,3.90
2019-05-12T07:32:19.772Z,3.77
2019-05-12T07:34:47.085Z,3.60
2019-05-12T07:37:23.639Z,3.90
2019-05-12T07:39:54.201Z,3.37
2019-05-12T07:42:31.579Z,3.17
2019-05-12T07:45:01.102Z,2.93
2019-05-12T07:47:33.195Z,3.30
2019-05-12T07:50:04.466Z,3.80
2019-05-12T07:52:34.732Z,3.23
2019-05-12T07:55:06.939Z,3.23
2019-05-12T07:57:52.016Z,3.33
2019-05-12T08:00:11.296Z,3.60
2019-05-12T08:02:44.414Z,3.40
2019-05-12T08:05:19.775Z,3.30
2019-05-12T08:07:50.525Z,4.27
2019-05-12T08:10:23.462Z,3.20
2019-05-12T08:12:59.339Z,2.83
2019-05-12T08:15:25.065Z,3.10
2019-05-12T08:17:59.281Z,3.27
2019-05-12T08:20:38.781Z,2.97
2019-05-12T08:23:10.703Z,3.03
2019-05-12T08:25:43.923Z,2.67
2019-05-12T08:28:28.094Z,3.30
2019-05-12T08:31:03.584Z,3.07
2019-05-12T08:33:34.669Z,2.80
2019-05-12T08:36:11.478Z,3.90
2019-05-12T08:38:44.461Z,3.30
2019-05-12T08:41:14.781Z,4.03
2019-05-12T08:43:54.515Z,2.80
2019-05-12T08:46:28.781Z,3.60
2019-05-12T08:49:06.055Z,3.40
2019-05-12T08:51:38.303Z,3.10
2019-05-12T08:54:17.010Z,4.27
2019-05-12T08:56:59.361Z,3.67
2019-05-12T08:59:38.442Z,3.40
2019-05-12T09:02:10.759Z,3.47
2019-05-12T09:04:55.673Z,3.80
2019-05-12T09:07:35.784Z,3.70
2019-05-12T09:10:10.601Z,3.77
2019-05-12T09:12:44.541Z,3.30
2019-05-12T09:15:23.400Z,3.47
2019-05-12T09:17:57.049Z,3.20
2019-05-12T09:20:29.521Z,3.47
2019-05-12T09:23:05.693Z,3.10
2019-05-12T09:25:39.308Z,3.33
2019-05-12T09:28:08.477Z,2.87
2019-05-12T09:30:44.538Z,3.10
2019-05-12T09:33:13.839Z,3.40
2019-05-12T09:35:54.100Z,3.20
2019-05-12T09:38:26.579Z,3.47
2019-05-12T09:41:02.347Z,3.77
2019-05-12T09:43:34.355Z,3.10
2019-05-12T09:46:15.999Z,3.77
2019-05-12T09:48:52.355Z,3.93
2019-05-12T09:51:32.928Z,3.50
2019-05-12T09:54:05.375Z,4.20
2019-05-12T09:56:41.208Z,3.07
2019-05-12T09:59:22.608Z,3.63
2019-05-12T10:01:46.110Z,4.40
2019-05-12T10:04:19.544Z,3.67
2019-05-12T10:06:48.071Z,3.30
2019-05-12T10:09:19.862Z,3.67
2019-05-12T10:11:59.868Z,3.80
2019-05-12T10:14:23.701Z,3.60
2019-05-12T10:16:54.654Z,3.23
2019-05-12T10:19:25.202Z,2.70
2019-05-12T10:21:59.465Z,2.83
2019-05-12T10:24:41.584Z,3.27
2019-05-12T10:27:05.749Z,3.10
2019-05-12T10:29:38.826Z,3.40
2019-05-12T10:32:13.419Z,2.90
2019-05-12T10:34:51.202Z,3.30
2019-05-12T10:37:29.306Z,2.73
2019-05-12T10:40:03.735Z,3.97
2019-05-12T10:42:39.782Z,3.17
2019-05-12T10:45:20.510Z,3.60
2019-05-12T10:47:55.967Z,3.70
2019-05-12T10:50:36.966Z,3.60
2019-05-12T10:53:18.084Z,3.20
2019-05-12T10:55:55.282Z,2.87
2019-05-12T10:58:28.381Z,3.47
2019-05-12T11:01:08.577Z,3.50
2019-05-12T11:03:42.900Z,3.10
2019-05-12T11:06:25.641Z,2.73
2019-05-12T11:09:09.505Z,2.60
2019-05-12T11:11:43.722Z,2.67
2019-05-12T11:14:30.969Z,2.67
2019-05-12T11:17:07.730Z,2.30
2019-05-12T11:19:40.816Z,2.60
2019-05-12T11:22:30.733Z,2.77
2019-05-12T11:25:14.327Z,2.80
2019-05-12T11:27:40.779Z,2.73
2019-05-12T11:30:13.217Z,2.70
2019-05-12T11:32:46.726Z,2.83
2019-05-12T11:35:38.883Z,2.50
2019-05-12T11:38:13.561Z,2.30
2019-05-12T11:40:50.593Z,2.70
2019-05-12T11:43:25.241Z,2.77
2019-05-12T11:45:59.299Z,2.47
2019-05-12T11:48:40.323Z,2.63
2019-05-12T11:51:34.074Z,3.03
2019-05-12T11:54:10.810Z,2.20
2019-05-12T11:56:48.045Z,2.60
2019-05-12T11:59:16.198Z,2.80
2019-05-12T12:01:56.056Z,3.10
2019-05-12T12:04:35.891Z,2.43
2019-05-12T12:07:11.038Z,3.30
2019-05-12T12:09:56.150Z,3.93
2019-05-12T12:12:29.462Z,2.53
2019-05-12T12:15:04.810Z,2.07
2019-05-12T12:17:39.290Z,2.90
2019-05-12T12:20:22.401Z,2.73
2019-05-12T12:23:00.111Z,1.90
2019-05-12T12:25:34.113Z,1.70
2019-05-12T12:28:07.778Z,2.10
2019-05-12T12:30:41.683Z,2.00
2019-05-12T12:33:23.612Z,1.87
2019-05-12T12:36:00.777Z,2.00
2019-05-12T12:38:36.407Z,1.73
2019-05-12T12:41:13.089Z,2.10
2019-05-12T12:43:47.021Z,1.50
2019-05-12T12:46:25.853Z,2.00
2019-05-12T12:49:08.629Z,2.13
2019-05-12T12:51:38.926Z,1.60
2019-05-12T12:54:13.049Z,1.40
2019-05-12T12:57:00.102Z,1.73
2019-05-12T12:59:33.365Z,1.67
2019-05-12T13:02:09.325Z,1.47
2019-05-12T13:04:58.038Z,1.80
2019-05-12T13:07:38.672Z,1.70
2019-05-12T13:10:14.039Z,1.53
2019-05-12T13:12:50.360Z,2.00
2019-05-12T13:15:27.549Z,1.93
2019-05-12T13:18:09.253Z,2.20
2019-05-12T13:20:45.477Z,2.03
2019-05-12T13:23:18.826Z,1.90
2019-05-12T13:25:54.929Z,1.80
2019-05-12T13:28:28.994Z,1.77
2019-05-12T13:31:08.964Z,1.77
2019-05-12T13:33:41.575Z,1.73
2019-05-12T13:36:18.358Z,1.37
2019-05-12T13:38:52.393Z,1.60
2019-05-12T13:41:25.506Z,1.60
2019-05-12T13:44:03.927Z,1.77
2019-05-12T13:46:43.739Z,1.57
2019-05-12T13:49:24.372Z,1.00
2019-05-12T13:51:55.686Z,1.47
2019-05-12T13:54:30.134Z,1.47
2019-05-12T13:57:11.727Z,1.40
2019-05-12T13:59:43.529Z,1.40
2019-05-12T14:02:22.192Z,1.43
2019-05-12T14:04:55.353Z,1.70
2019-05-12T14:08:08.019Z,1.83
2019-05-12T14:11:01.766Z,1.27
2019-05-12T14:13:36.887Z,1.30
2019-05-12T14:16:17.618Z,1.70
2019-05-12T14:18:59.207Z,1.30
2019-05-12T14:21:40.940Z,1.07
2019-05-12T14:24:05.439Z,1.30
2019-05-12T14:26:39.417Z,1.80
2019-05-12T14:29:09.219Z,1.30
2019-05-12T14:31:49.192Z,1.23
2019-05-12T14:34:16.551Z,1.27
2019-05-12T14:36:44.026Z,1.70
2019-05-12T14:39:13.861Z,1.00
2019-05-12T14:41:52.990Z,1.50
2019-05-12T14:44:17.118Z,1.07
2019-05-12T14:46:50.655Z,0.90
2019-05-12T14:49:20.296Z,0.90
2019-05-12T14:51:49.973Z,1.00
2019-05-12T14:54:20.064Z,1.10
2019-05-12T14:56:53.685Z,0.83
2019-05-12T14:59:23.742Z,1.30
2019-05-12T15:01:58.941Z,1.40
2019-05-12T15:04:29.844Z,1.17
2019-05-12T15:06:59.636Z,1.03
2019-05-12T15:09:29.010Z,1.00
2019-05-12T15:11:59.106Z,0.90
2019-05-12T15:14:32.840Z,1.00
2019-05-12T15:17:00.345Z,0.90
2019-05-12T15:19:37.042Z,1.00
2019-05-12T15:22:11.582Z,1.40
2019-05-12T15:24:38.990Z,0.97
2019-05-12T15:27:09.110Z,1.20
2019-05-12T15:29:38.926Z,0.90
2019-05-12T15:32:08.946Z,0.90
2019-05-12T15:34:39.054Z,1.13
2019-05-12T15:37:09.214Z,0.90
2019-05-12T15:39:39.311Z,1.30
2019-05-12T15:42:09.130Z,0.93
2019-05-12T15:44:39.090Z,1.03
2019-05-12T15:47:09.210Z,1.00
2019-05-12T15:49:39.113Z,1.20
2019-05-12T15:52:09.054Z,1.33
2019-05-12T15:54:45.765Z,1.27
2019-05-12T15:57:13.890Z,1.10
2019-05-12T15:59:43.985Z,0.80
2019-05-12T16:02:20.046Z,0.90
2019-05-12T16:04:49.988Z,1.00
2019-05-12T16:07:21.230Z,0.90
2019-05-12T16:09:51.366Z,1.47
2019-05-12T16:12:26.870Z,0.97
2019-05-12T16:14:55.995Z,0.90
2019-05-12T16:17:37.723Z,2.03
2019-05-12T16:20:10.320Z,1.83
2019-05-12T16:22:44.969Z,1.20
2019-05-12T16:25:15.367Z,1.50
2019-05-12T16:27:45.154Z,1.10
2019-05-12T16:30:20.243Z,0.87
2019-05-12T16:32:48.162Z,0.90
2019-05-12T16:35:26.398Z,1.10
2019-05-12T16:37:53.396Z,1.20
2019-05-12T16:40:23.837Z,1.30
2019-05-12T16:42:59.569Z,1.10
2019-05-12T16:45:26.946Z,0.93
2019-05-12T16:47:59.301Z,1.00
2019-05-12T16:50:29.794Z,1.20
2019-05-12T16:53:00.534Z,1.30
2019-05-12T16:55:45.010Z,1.00
2019-05-12T16:58:05.307Z,1.10
2019-05-12T17:00:39.755Z,0.83
2019-05-12T17:03:07.342Z,0.70
2019-05-12T17:05:37.504Z,0.80
2019-05-12T17:08:07.610Z,1.03
2019-05-12T17:10:37.682Z,1.00
2019-05-12T17:13:13.206Z,1.20
2019-05-12T17:15:40.150Z,1.00
2019-05-12T17:18:13.437Z,1.00
2019-05-12T17:20:50.904Z,0.80
2019-05-12T17:23:26.550Z,0.93
2019-05-12T17:25:56.650Z,1.50
2019-05-12T17:28:28.727Z,0.97
2019-05-12T17:30:58.850Z,0.80
2019-05-12T17:33:28.978Z,0.90
2019-05-12T17:36:03.086Z,1.00
2019-05-12T17:38:30.588Z,1.53
2019-05-12T17:41:00.993Z,1.00
2019-05-12T17:43:31.150Z,0.90
2019-05-12T17:46:04.072Z,0.80
2019-05-12T17:48:37.213Z,1.37
2019-05-12T17:51:04.995Z,1.00
2019-05-12T17:53:38.922Z,1.23
2019-05-12T17:56:09.038Z,1.07
2019-05-12T17:58:44.563Z,1.10
2019-05-12T18:01:10.938Z,1.50
2019-05-12T18:03:45.823Z,0.90
2019-05-12T18:06:20.435Z,1.20
2019-05-12T18:08:50.138Z,1.03
2019-05-12T18:11:19.836Z,1.10
2019-05-12T18:14:02.156Z,1.53
2019-05-12T18:16:27.439Z,1.17
2019-05-12T18:18:58.178Z,1.90
2019-05-12T18:21:31.165Z,1.23
2019-05-12T18:24:08.859Z,1.90
2019-05-12T18:26:36.306Z,1.30
2019-05-12T18:29:06.411Z,0.97
2019-05-12T18:31:36.251Z,1.13
2019-05-12T18:34:06.839Z,1.33
2019-05-12T18:36:59.605Z,1.20
2019-05-12T18:39:27.766Z,1.30
2019-05-12T18:41:58.454Z,1.50
2019-05-12T18:44:31.211Z,1.30
2019-05-12T18:47:00.842Z,1.00
2019-05-12T18:49:31.454Z,1.53
2019-05-12T18:52:03.746Z,1.23
2019-05-12T18:54:34.593Z,1.40
2019-05-12T18:57:07.493Z,1.03
2019-05-12T18:59:37.650Z,1.30
2019-05-12T19:02:07.591Z,0.80
2019-05-12T19:04:39.604Z,1.40
2019-05-12T19:07:15.433Z,1.30
2019-05-12T19:09:51.513Z,1.10
2019-05-12T19:12:31.878Z,1.17
2019-05-12T19:14:57.006Z,1.00
2019-05-12T19:17:29.298Z,1.23
2019-05-12T19:19:59.887Z,1.27
2019-05-12T19:22:39.520Z,1.50
2019-05-12T19:25:09.382Z,1.10
2019-05-12T19:27:40.223Z,1.17
2019-05-12T19:30:13.612Z,1.00
2019-05-12T19:32:45.063Z,1.10
2019-05-12T19:35:20.211Z,1.37
2019-05-12T19:37:47.974Z,1.30
2019-05-12T19:40:18.375Z,1.00
2019-05-12T19:42:53.671Z,1.00
2019-05-12T19:45:24.990Z,3.60
2019-05-12T19:47:55.090Z,3.90
2019-05-12T19:50:25.282Z,4.17
2019-05-12T19:52:58.346Z,4.00
2019-05-12T19:55:29.387Z,3.07
2019-05-12T19:58:03.213Z,2.70
2019-05-12T20:00:32.919Z,3.10
2019-05-12T20:03:04.486Z,3.03
2019-05-12T20:05:34.407Z,2.97
2019-05-12T20:08:04.375Z,3.17
2019-05-12T20:10:36.231Z,4.00
2019-05-12T20:13:05.458Z,2.33
2019-05-12T20:15:40.943Z,2.37
2019-05-12T20:18:08.974Z,2.33
2019-05-12T20:20:43.937Z,2.40
2019-05-12T20:23:10.933Z,2.33
2019-05-12T20:25:44.055Z,2.33
2019-05-12T20:28:14.522Z,1.47
2019-05-12T20:30:46.318Z,1.33
2019-05-12T20:33:16.928Z,1.47
2019-05-12T20:35:49.223Z,1.50
2019-05-12T20:38:18.299Z,1.30
2019-05-12T20:40:49.025Z,1.43
2019-05-12T20:43:24.101Z,1.10
2019-05-12T20:45:53.747Z,1.07
2019-05-12T20:48:26.495Z,1.07
2019-05-12T20:50:54.875Z,2.80
2019-05-12T20:53:31.578Z,1.13
2019-05-12T20:55:57.176Z,1.00
2019-05-12T20:58:34.243Z,1.20
2019-05-12T21:01:02.130Z,1.30
2019-05-12T21:03:46.457Z,1.13
2019-05-12T21:06:14.441Z,1.10
2019-05-12T21:08:53.263Z,1.10
2019-05-12T21:11:18.197Z,1.40
2019-05-12T21:13:48.298Z,1.20
2019-05-12T21:16:25.233Z,1.20
2019-05-12T21:19:02.130Z,1.50
2019-05-12T21:21:27.607Z,1.27
2019-05-12T21:24:00.450Z,1.27
2019-05-12T21:26:37.933Z,1.40
2019-05-12T21:29:07.967Z,1.17
2019-05-12T21:31:37.658Z,1.13
2019-05-12T21:34:13.043Z,1.30
2019-05-12T21:36:40.134Z,1.67
2019-05-12T21:39:17.088Z,2.07
2019-05-12T21:41:51.962Z,1.20
2019-05-12T21:44:19.549Z,1.27
2019-05-12T21:46:58.789Z,1.00
2019-05-12T21:49:25.158Z,0.90
2019-05-12T21:51:58.856Z,1.27
2019-05-12T21:54:29.381Z,1.63
2019-05-12T21:56:58.614Z,2.60
2019-05-12T21:59:34.269Z,1.80
2019-05-12T22:02:00.638Z,1.13
2019-05-12T22:04:32.882Z,1.20
2019-05-12T22:07:07.055Z,1.77
2019-05-12T22:09:41.508Z,1.00
2019-05-12T22:12:08.816Z,1.40
2019-05-12T22:14:43.218Z,1.27
2019-05-12T22:17:23.858Z,1.20
2019-05-12T22:20:08.477Z,1.10
2019-05-12T22:22:33.220Z,1.10
2019-05-12T22:25:03.244Z,1.10
2019-05-12T22:27:33.072Z,1.43
2019-05-12T22:30:04.407Z,1.13
2019-05-12T22:32:34.299Z,1.00
2019-05-12T22:35:13.287Z,1.03
2019-05-12T22:37:45.009Z,1.50
2019-05-12T22:40:19.279Z,1.00
2019-05-12T22:42:50.613Z,1.10
2019-05-12T22:45:18.848Z,1.03
2019-05-12T22:47:55.189Z,1.93
2019-05-12T22:50:33.139Z,1.60
2019-05-12T22:53:04.401Z,1.90
2019-05-12T22:55:36.085Z,1.70
2019-05-12T22:58:10.856Z,1.87
2019-05-12T23:00:37.714Z,1.93
2019-05-12T23:03:12.462Z,1.83
2019-05-12T23:05:42.227Z,1.80
2019-05-12T23:08:14.118Z,1.50
2019-05-12T23:10:51.443Z,2.23
2019-05-12T23:13:18.791Z,1.60
2019-05-12T23:15:49.556Z,1.57
2019-05-12T23:18:30.733Z,1.60
2019-05-12T23:21:04.063Z,1.30
2019-05-12T23:23:30.872Z,1.90
2019-05-12T23:26:02.036Z,1.10
2019-05-12T23:28:33.787Z,1.47
2019-05-12T23:31:04.251Z,1.33
2019-05-12T23:33:36.773Z,1.40
2019-05-12T23:36:09.397Z,1.27
2019-05-12T23:38:38.658Z,1.23
2019-05-12T23:41:10.703Z,1.20
2019-05-12T23:43:40.879Z,1.60
2019-05-12T23:46:11.690Z,1.07
2019-05-12T23:48:43.878Z,1.50
2019-05-12T23:51:14.276Z,1.20
2019-05-12T23:53:44.058Z,1.70
2019-05-12T23:56:14.969Z,1.10
2019-05-12T23:58:44.783Z,1.20
